Time;durP1;ratioP1;P1;durP2;ratioP2;P2;SDS_P1;SDS_P2;PMS_P1;PMS_P2;Temp;Humidity;BMP_temperature;BMP_pressure;BME280_temperature;BME280_humidity;BME280_pressure;Samples;Min_cycle;Max_cycle;Signal;HPM_P1;HPM_P2
2021/09/13 00:01:46;;;;;;;18.73;7.18;;;;;;;;;;5014548;28;20049;-64
2021/09/13 00:04:11;;;;;;;12.60;8.70;;;;;;;;;;5013721;28;20022;-64
2021/09/13 00:06:37;;;;;;;12.35;8.73;;;;;;;;;;5014570;28;20092;-63
2021/09/13 00:09:02;;;;;;;13.48;7.68;;;;;;;;;;5014572;28;20049;-64
2021/09/13 00:11:27;;;;;;;14.50;7.75;;;;;;;;;;5014556;28;20041;-64
2021/09/13 00:13:52;;;;;;;12.15;8.13;;;;;;;;;;5014763;28;20499;-64
2021/09/13 00:16:18;;;;;;;14.68;7.47;;;;;;;;;;5014355;28;20037;-64
2021/09/13 00:18:43;;;;;;;11.85;7.13;;;;;;;;;;5014670;28;20022;-63
2021/09/13 00:21:08;;;;;;;12.65;7.57;;;;;;;;;;5014251;28;20132;-63
2021/09/13 00:23:33;;;;;;;16.08;8.85;;;;;;;;;;5014707;28;20018;-64
2021/09/13 00:25:59;;;;;;;13.30;8.48;;;;;;;;;;5012571;28;20037;-64
2021/09/13 00:28:24;;;;;;;18.20;9.00;;;;;;;;;;5014737;28;20026;-64
2021/09/13 00:30:49;;;;;;;12.45;8.52;;;;;;;;;;5014209;28;20542;-64
2021/09/13 00:33:14;;;;;;;12.50;8.35;;;;;;;;;;5013088;28;20411;-64
2021/09/13 00:35:40;;;;;;;20.83;8.23;;;;;;;;;;5013894;28;20548;-64
2021/09/13 00:38:05;;;;;;;14.05;7.90;;;;;;;;;;5014180;28;20480;-63
2021/09/13 00:40:30;;;;;;;15.52;8.82;;;;;;;;;;5013937;28;20037;-63
2021/09/13 00:42:55;;;;;;;16.67;9.55;;;;;;;;;;5014146;28;20018;-64
2021/09/13 00:45:20;;;;;;;13.02;9.43;;;;;;;;;;5013639;28;20112;-63
2021/09/13 00:47:46;;;;;;;13.82;8.80;;;;;;;;;;5014150;28;20104;-62
2021/09/13 00:50:11;;;;;;;12.63;8.57;;;;;;;;;;5013597;28;20025;-63
2021/09/13 00:52:36;;;;;;;13.38;7.45;;;;;;;;;;5014175;28;20018;-65
2021/09/13 00:55:01;;;;;;;13.90;8.52;;;;;;;;;;5012307;28;20045;-63
2021/09/13 00:57:27;;;;;;;17.90;9.38;;;;;;;;;;5013936;28;20029;-63
2021/09/13 00:59:52;;;;;;;13.60;8.90;;;;;;;;;;5013769;28;20455;-63
2021/09/13 01:02:17;;;;;;;15.88;9.60;;;;;;;;;;5013397;28;20038;-63
2021/09/13 01:04:43;;;;;;;14.75;9.15;;;;;;;;;;5013146;28;20052;-63
2021/09/13 01:07:08;;;;;;;15.40;8.63;;;;;;;;;;4995677;28;20054;-63
2021/09/13 01:09:34;;;;;;;15.73;8.70;;;;;;;;;;5012137;28;20481;-63
2021/09/13 01:11:59;;;;;;;19.80;9.93;;;;;;;;;;5013170;28;20034;-63
2021/09/13 01:14:32;;;;;;;15.68;9.75;;;;;;;;;;5013712;28;20026;-63
2021/09/13 01:16:57;;;;;;;16.65;9.02;;;;;;;;;;5011714;28;20037;-63
2021/09/13 01:19:22;;;;;;;15.35;8.70;;;;;;;;;;5013403;28;20030;-63
2021/09/13 01:21:47;;;;;;;11.38;8.10;;;;;;;;;;5013064;28;20030;-63
2021/09/13 01:24:13;;;;;;;14.40;7.97;;;;;;;;;;5013604;28;20036;-63
2021/09/13 01:26:38;;;;;;;13.38;7.15;;;;;;;;;;5012999;28;20037;-62
2021/09/13 01:29:03;;;;;;;13.63;7.32;;;;;;;;;;5013397;28;20076;-64
2021/09/13 01:31:29;;;;;;;13.77;7.32;;;;;;;;;;5011663;28;20625;-63
2021/09/13 01:33:54;;;;;;;15.75;7.90;;;;;;;;;;5013128;28;20480;-62
2021/09/13 01:36:20;;;;;;;12.65;7.35;;;;;;;;;;5012858;28;20056;-63
2021/09/13 01:38:45;;;;;;;12.95;9.02;;;;;;;;;;5013173;28;20038;-64
2021/09/13 01:41:10;;;;;;;14.57;9.55;;;;;;;;;;5012751;28;20034;-62
2021/09/13 01:43:35;;;;;;;20.08;9.90;;;;;;;;;;5013063;28;20076;-62
2021/09/13 01:46:01;;;;;;;15.32;9.73;;;;;;;;;;5012841;28;20026;-63
2021/09/13 01:48:26;;;;;;;18.88;11.02;;;;;;;;;;5011758;28;20017;-62
2021/09/13 01:50:51;;;;;;;18.95;11.45;;;;;;;;;;5012753;28;20038;-62
2021/09/13 01:53:16;;;;;;;18.42;10.77;;;;;;;;;;5013044;28;20021;-63
2021/09/13 01:55:42;;;;;;;15.93;9.77;;;;;;;;;;5012608;28;20053;-63
2021/09/13 01:58:07;;;;;;;13.70;9.50;;;;;;;;;;5013036;28;20060;-63
2021/09/13 02:00:32;;;;;;;16.52;10.60;;;;;;;;;;5012479;28;20079;-63
2021/09/13 02:02:57;;;;;;;19.52;10.07;;;;;;;;;;5012943;28;20018;-62
2021/09/13 02:05:23;;;;;;;18.33;10.50;;;;;;;;;;5012628;28;20441;-63
2021/09/13 02:07:48;;;;;;;18.88;10.50;;;;;;;;;;5012936;28;20029;-63
2021/09/13 02:10:13;;;;;;;14.13;8.73;;;;;;;;;;5012320;28;20037;-64
2021/09/13 02:12:38;;;;;;;18.33;9.50;;;;;;;;;;5012908;28;20022;-62
2021/09/13 02:15:04;;;;;;;16.67;9.48;;;;;;;;;;5012472;28;20017;-65
2021/09/13 02:17:29;;;;;;;13.43;7.85;;;;;;;;;;5015429;28;20025;-62
2021/09/13 02:19:54;;;;;;;11.02;8.05;;;;;;;;;;5016664;28;20088;-64
2021/09/13 02:22:20;;;;;;;11.00;7.95;;;;;;;;;;5016278;28;20037;-62
2021/09/13 02:24:45;;;;;;;13.43;8.27;;;;;;;;;;5016988;28;20034;-62
2021/09/13 02:27:10;;;;;;;12.13;8.85;;;;;;;;;;5016339;28;20109;-64
2021/09/13 02:29:35;;;;;;;17.25;9.32;;;;;;;;;;5016311;28;20441;-62
2021/09/13 02:32:01;;;;;;;18.52;10.48;;;;;;;;;;5014996;28;20469;-62
2021/09/13 02:34:26;;;;;;;17.63;9.98;;;;;;;;;;5016580;28;20018;-64
2021/09/13 02:36:51;;;;;;;17.42;9.38;;;;;;;;;;5014982;28;20045;-62
2021/09/13 02:39:16;;;;;;;18.10;9.85;;;;;;;;;;5016450;28;20030;-62
2021/09/13 02:41:42;;;;;;;15.88;10.48;;;;;;;;;;5016140;28;20100;-64
2021/09/13 02:44:07;;;;;;;19.00;11.60;;;;;;;;;;5016483;28;20026;-64
2021/09/13 02:46:32;;;;;;;19.85;11.57;;;;;;;;;;5016091;28;20030;-64
2021/09/13 02:48:57;;;;;;;16.65;11.00;;;;;;;;;;5016341;28;20041;-63
2021/09/13 02:51:23;;;;;;;17.45;11.05;;;;;;;;;;5016267;28;20029;-62
2021/09/13 02:53:48;;;;;;;23.10;12.88;;;;;;;;;;5016513;28;20058;-62
2021/09/13 02:56:13;;;;;;;18.88;10.60;;;;;;;;;;5016110;28;20037;-62
2021/09/13 02:58:38;;;;;;;12.90;8.38;;;;;;;;;;5014862;28;20504;-63
2021/09/13 03:01:03;;;;;;;14.93;8.60;;;;;;;;;;5015660;28;20137;-63
2021/09/13 03:03:29;;;;;;;22.48;10.40;;;;;;;;;;5016134;28;20097;-63
2021/09/13 03:05:54;;;;;;;17.73;10.38;;;;;;;;;;5015775;28;20385;-62
2021/09/13 03:08:19;;;;;;;13.70;8.45;;;;;;;;;;5016289;28;20476;-62
2021/09/13 03:10:44;;;;;;;22.20;11.77;;;;;;;;;;5014386;28;20404;-63
2021/09/13 03:13:10;;;;;;;20.27;11.82;;;;;;;;;;5014682;28;20431;-63
2021/09/13 03:15:35;;;;;;;19.92;12.27;;;;;;;;;;5012909;28;20030;-63
2021/09/13 03:18:00;;;;;;;21.17;13.57;;;;;;;;;;5014608;28;20014;-62
2021/09/13 03:20:25;;;;;;;26.38;13.13;;;;;;;;;;5014222;28;20036;-62
2021/09/13 03:22:51;;;;;;;22.70;12.05;;;;;;;;;;5014889;28;20018;-63
2021/09/13 03:25:16;;;;;;;17.73;10.40;;;;;;;;;;5014142;28;20026;-63
2021/09/13 03:27:41;;;;;;;18.67;10.07;;;;;;;;;;5014120;28;20444;-62
2021/09/13 03:30:07;;;;;;;18.67;12.48;;;;;;;;;;5013921;28;20117;-62
2021/09/13 03:32:32;;;;;;;20.33;13.25;;;;;;;;;;5014325;28;20025;-64
2021/09/13 03:34:57;;;;;;;21.48;12.60;;;;;;;;;;5014320;28;20372;-62
2021/09/13 03:37:22;;;;;;;22.25;13.20;;;;;;;;;;5013978;28;20041;-63
2021/09/13 03:39:47;;;;;;;23.50;13.50;;;;;;;;;;5014230;28;20395;-63
2021/09/13 03:42:13;;;;;;;17.52;11.82;;;;;;;;;;5014019;28;20038;-63
2021/09/13 03:44:38;;;;;;;15.95;10.43;;;;;;;;;;5014303;28;20029;-62
2021/09/13 03:47:03;;;;;;;15.82;10.52;;;;;;;;;;5013728;28;20033;-63
2021/09/13 03:49:29;;;;;;;22.02;12.55;;;;;;;;;;5012957;28;20488;-62
2021/09/13 03:51:54;;;;;;;22.42;13.52;;;;;;;;;;5013745;28;20030;-64
2021/09/13 03:54:19;;;;;;;23.55;14.30;;;;;;;;;;5014629;28;20105;-64
2021/09/13 03:56:45;;;;;;;24.35;14.98;;;;;;;;;;5013859;28;20496;-66
2021/09/13 03:59:10;;;;;;;24.92;15.73;;;;;;;;;;5013967;28;20044;-63
2021/09/13 04:01:35;;;;;;;19.08;12.13;;;;;;;;;;5013602;28;20030;-63
2021/09/13 04:04:02;;;;;;;20.65;10.55;;;;;;;;;;5013972;28;20116;-63
2021/09/13 04:09:40;;;;;;;16.52;9.98;;;;;;;;;;4972914;28;1192038;-63
2021/09/13 04:11:57;;;;;;;18.90;10.00;;;;;;;;;;5014447;28;20038;-63
2021/09/13 04:14:23;;;;;;;18.20;10.43;;;;;;;;;;5014866;28;20037;-63
2021/09/13 04:16:48;;;;;;;15.38;9.75;;;;;;;;;;5012986;28;20038;-63
2021/09/13 04:19:13;;;;;;;24.70;11.77;;;;;;;;;;5014755;28;20088;-63
2021/09/13 04:21:38;;;;;;;22.08;13.32;;;;;;;;;;5014575;28;20037;-63
2021/09/13 04:24:04;;;;;;;20.48;9.88;;;;;;;;;;5014764;28;20034;-63
2021/09/13 04:26:29;;;;;;;15.00;9.85;;;;;;;;;;5014259;28;20117;-63
2021/09/13 04:28:54;;;;;;;18.25;11.40;;;;;;;;;;5013120;28;20068;-63
2021/09/13 04:31:19;;;;;;;18.38;11.40;;;;;;;;;;5012949;28;20036;-64
2021/09/13 04:33:45;;;;;;;19.63;12.25;;;;;;;;;;5014683;28;20460;-63
2021/09/13 04:36:10;;;;;;;20.55;12.15;;;;;;;;;;5013745;28;20084;-62
2021/09/13 04:38:35;;;;;;;15.60;10.63;;;;;;;;;;5012690;28;20064;-63
2021/09/13 04:41:00;;;;;;;18.20;11.35;;;;;;;;;;5013398;28;20026;-63
2021/09/13 04:43:25;;;;;;;24.02;11.48;;;;;;;;;;5014240;28;20465;-62
2021/09/13 04:45:51;;;;;;;13.55;8.77;;;;;;;;;;5013768;28;20033;-63
2021/09/13 04:48:16;;;;;;;17.17;9.95;;;;;;;;;;5014363;28;20030;-62
2021/09/13 04:50:41;;;;;;;15.07;9.90;;;;;;;;;;5013912;28;20104;-64
2021/09/13 04:53:06;;;;;;;14.73;8.88;;;;;;;;;;5014100;28;20423;-64
2021/09/13 04:55:34;;;;;;;14.30;8.52;;;;;;;;;;5013841;28;20427;-64
2021/09/13 04:57:59;;;;;;;17.75;9.68;;;;;;;;;;5012819;28;20109;-64
2021/09/13 05:00:24;;;;;;;12.57;8.68;;;;;;;;;;5012598;28;20152;-64
2021/09/13 05:02:50;;;;;;;16.40;8.98;;;;;;;;;;5014195;28;20116;-64
2021/09/13 05:05:15;;;;;;;16.55;10.10;;;;;;;;;;5014078;28;20029;-64
2021/09/13 05:07:40;;;;;;;18.52;9.60;;;;;;;;;;5013925;28;20025;-63
2021/09/13 05:10:06;;;;;;;16.30;9.90;;;;;;;;;;5013139;28;20045;-65
2021/09/13 05:12:31;;;;;;;14.27;9.00;;;;;;;;;;5013826;28;20018;-62
2021/09/13 05:14:56;;;;;;;13.57;9.27;;;;;;;;;;5013766;28;20026;-63
2021/09/13 05:17:21;;;;;;;18.65;10.23;;;;;;;;;;5013395;28;20044;-64
2021/09/13 05:19:46;;;;;;;16.27;10.48;;;;;;;;;;5014039;28;20431;-64
2021/09/13 05:22:12;;;;;;;15.50;9.85;;;;;;;;;;5013412;28;20436;-64
2021/09/13 05:24:37;;;;;;;20.95;11.68;;;;;;;;;;5013879;28;20507;-64
2021/09/13 05:27:02;;;;;;;20.55;11.50;;;;;;;;;;5013357;28;20539;-64
2021/09/13 05:29:27;;;;;;;17.20;11.07;;;;;;;;;;5013587;28;20468;-63
2021/09/13 05:31:53;;;;;;;17.60;11.27;;;;;;;;;;5012729;28;20026;-64
2021/09/13 05:34:18;;;;;;;16.60;9.77;;;;;;;;;;5013720;28;20037;-64
2021/09/13 05:36:43;;;;;;;19.20;10.18;;;;;;;;;;5013121;28;20029;-64
2021/09/13 05:39:09;;;;;;;15.07;9.73;;;;;;;;;;5013511;28;20030;-64
2021/09/13 05:41:34;;;;;;;12.10;7.95;;;;;;;;;;5013257;28;20484;-64
2021/09/13 05:43:59;;;;;;;16.63;9.85;;;;;;;;;;5013375;28;20032;-63
2021/09/13 05:46:24;;;;;;;14.65;8.77;;;;;;;;;;5011745;28;20381;-64
2021/09/13 05:48:49;;;;;;;15.52;8.75;;;;;;;;;;5012063;28;20487;-63
2021/09/13 05:51:15;;;;;;;13.55;8.07;;;;;;;;;;5012779;28;20104;-64
2021/09/13 05:53:40;;;;;;;11.13;7.30;;;;;;;;;;5013255;28;20017;-64
2021/09/13 05:56:05;;;;;;;9.38;6.82;;;;;;;;;;5012895;28;20030;-63
2021/09/13 05:58:30;;;;;;;12.43;7.05;;;;;;;;;;5013057;28;20072;-64
2021/09/13 06:00:55;;;;;;;11.10;6.30;;;;;;;;;;5012748;28;20541;-64
2021/09/13 06:03:21;;;;;;;12.77;6.88;;;;;;;;;;5013291;28;20101;-64
2021/09/13 06:05:46;;;;;;;14.10;6.40;;;;;;;;;;5012814;28;20080;-64
2021/09/13 06:08:11;;;;;;;8.50;6.28;;;;;;;;;;5013072;28;20018;-64
2021/09/13 06:10:37;;;;;;;14.73;6.70;;;;;;;;;;5012510;28;20092;-64
2021/09/13 06:13:02;;;;;;;12.75;7.53;;;;;;;;;;5012999;28;20033;-64
2021/09/13 06:15:27;;;;;;;13.23;6.95;;;;;;;;;;5012206;28;20467;-64
2021/09/13 06:17:52;;;;;;;10.63;6.70;;;;;;;;;;5012939;28;20093;-63
2021/09/13 06:20:20;;;;;;;10.90;6.68;;;;;;;;;;5012443;28;20041;-64
2021/09/13 06:22:45;;;;;;;11.07;7.55;;;;;;;;;;5013045;28;20026;-64
2021/09/13 06:25:10;;;;;;;10.93;7.20;;;;;;;;;;5011986;28;20028;-63
2021/09/13 06:27:35;;;;;;;12.02;7.18;;;;;;;;;;5012740;28;20022;-64
2021/09/13 06:30:01;;;;;;;13.90;7.45;;;;;;;;;;5012753;28;20018;-63
2021/09/13 06:32:26;;;;;;;10.75;6.80;;;;;;;;;;5012817;28;20476;-65
2021/09/13 06:34:51;;;;;;;10.23;7.32;;;;;;;;;;5012958;28;20552;-64
2021/09/13 06:37:19;;;;;;;11.98;7.30;;;;;;;;;;5012615;28;20038;-64
2021/09/13 06:39:45;;;;;;;10.65;6.65;;;;;;;;;;5012843;28;20050;-63
2021/09/13 06:42:10;;;;;;;10.63;6.60;;;;;;;;;;5012462;28;20105;-63
2021/09/13 06:44:37;;;;;;;9.23;5.40;;;;;;;;;;5013079;28;20443;-64
2021/09/13 06:47:10;;;;;;;11.38;5.18;;;;;;;;;;5012596;28;20535;-64
2021/09/13 06:49:35;;;;;;;7.90;5.45;;;;;;;;;;5012789;28;20441;-63
2021/09/13 06:52:01;;;;;;;9.82;5.13;;;;;;;;;;5012344;28;20061;-63
2021/09/13 06:54:26;;;;;;;14.45;6.07;;;;;;;;;;5012689;28;20029;-63
2021/09/13 06:56:52;;;;;;;11.50;6.53;;;;;;;;;;5012343;28;20030;-63
2021/09/13 06:59:18;;;;;;;9.90;5.88;;;;;;;;;;5012809;28;20057;-63
2021/09/13 07:01:43;;;;;;;9.07;6.40;;;;;;;;;;5012315;28;20065;-63
2021/09/13 07:04:08;;;;;;;9.82;6.72;;;;;;;;;;5015969;28;20021;-63
2021/09/13 07:06:33;;;;;;;11.93;6.57;;;;;;;;;;5015856;28;20034;-64
2021/09/13 07:08:58;;;;;;;15.00;6.90;;;;;;;;;;5014755;28;20050;-63
2021/09/13 07:11:24;;;;;;;14.45;6.20;;;;;;;;;;5015658;28;20054;-63
2021/09/13 07:13:49;;;;;;;13.18;6.70;;;;;;;;;;5016278;28;20205;-63
2021/09/13 07:16:15;;;;;;;13.57;7.32;;;;;;;;;;5015583;28;20492;-64
2021/09/13 07:18:40;;;;;;;14.50;7.38;;;;;;;;;;5015806;28;20121;-63
2021/09/13 07:21:05;;;;;;;15.20;6.93;;;;;;;;;;5014289;28;20030;-63
2021/09/13 07:23:30;;;;;;;16.65;8.05;;;;;;;;;;5015925;28;20029;-63
2021/09/13 07:25:56;;;;;;;26.08;7.97;;;;;;;;;;5015305;28;20088;-63
2021/09/13 07:28:21;;;;;;;39.47;9.20;;;;;;;;;;5015928;28;20426;-63
2021/09/13 07:30:46;;;;;;;44.60;10.15;;;;;;;;;;5015536;28;20022;-63
2021/09/13 07:33:12;;;;;;;55.17;11.85;;;;;;;;;;5014431;28;20026;-64
2021/09/13 07:35:37;;;;;;;57.88;13.95;;;;;;;;;;5014019;28;20034;-63
2021/09/13 07:38:02;;;;;;;46.42;12.75;;;;;;;;;;5015464;28;20122;-63
2021/09/13 07:40:27;;;;;;;40.72;15.05;;;;;;;;;;5015250;28;20053;-63
2021/09/13 07:42:52;;;;;;;37.78;14.48;;;;;;;;;;5014547;28;20057;-63
2021/09/13 07:45:18;;;;;;;40.97;14.60;;;;;;;;;;5015323;28;20018;-64
2021/09/13 07:47:43;;;;;;;31.08;14.45;;;;;;;;;;5015493;28;20025;-63
2021/09/13 07:50:08;;;;;;;43.88;14.35;;;;;;;;;;5015181;28;20025;-64
2021/09/13 07:52:34;;;;;;;32.20;13.55;;;;;;;;;;5015570;28;20044;-63
2021/09/13 07:54:59;;;;;;;39.22;14.02;;;;;;;;;;5015437;28;20281;-64
2021/09/13 07:57:24;;;;;;;35.17;13.75;;;;;;;;;;5014819;28;20080;-63
2021/09/13 07:59:50;;;;;;;40.33;14.90;;;;;;;;;;5015332;28;20038;-63
2021/09/13 08:02:15;;;;;;;50.17;15.52;;;;;;;;;;5013460;28;20037;-63
2021/09/13 08:04:41;;;;;;;51.47;16.48;;;;;;;;;;5015152;28;20084;-63
2021/09/13 08:07:06;;;;;;;44.38;15.43;;;;;;;;;;5014755;28;20037;-63
2021/09/13 08:09:31;;;;;;;44.15;15.75;;;;;;;;;;5014952;28;20081;-63
2021/09/13 08:11:57;;;;;;;43.30;14.85;;;;;;;;;;5014778;28;20026;-63
2021/09/13 08:14:22;;;;;;;42.58;15.27;;;;;;;;;;5014097;28;20029;-64
2021/09/13 08:16:47;;;;;;;52.17;16.20;;;;;;;;;;5014635;28;20536;-63
2021/09/13 08:19:12;;;;;;;41.78;15.95;;;;;;;;;;5014941;28;20461;-64
2021/09/13 08:21:40;;;;;;;38.55;16.42;;;;;;;;;;5014652;28;20033;-63
2021/09/13 08:24:05;;;;;;;45.75;15.93;;;;;;;;;;5015078;28;20177;-63
2021/09/13 08:26:31;;;;;;;33.90;15.50;;;;;;;;;;5014132;28;20053;-63
2021/09/13 08:28:56;;;;;;;43.90;16.10;;;;;;;;;;5013794;28;20014;-62
2021/09/13 08:31:21;;;;;;;38.15;16.42;;;;;;;;;;5014564;28;20097;-63
2021/09/13 08:33:46;;;;;;;44.08;16.48;;;;;;;;;;5014407;28;20014;-63
2021/09/13 08:36:12;;;;;;;36.75;15.23;;;;;;;;;;5014283;28;20126;-63
2021/09/13 08:38:37;;;;;;;37.42;15.40;;;;;;;;;;5014681;28;20069;-63
2021/09/13 08:41:02;;;;;;;28.55;14.35;;;;;;;;;;5014133;28;20109;-62
2021/09/13 08:43:27;;;;;;;27.35;14.65;;;;;;;;;;5014523;28;20068;-63
2021/09/13 08:45:56;;;;;;;30.30;15.25;;;;;;;;;;5013991;28;20045;-63
2021/09/13 08:53:18;;;;;;;24.80;14.65;;;;;;;;;;5014287;28;20429;-63
2021/09/13 08:55:49;;;;;;;29.98;14.20;;;;;;;;;;5013876;28;20034;-63
2021/09/13 08:58:16;;;;;;;33.55;14.82;;;;;;;;;;5014306;28;20021;-63
2021/09/13 09:00:41;;;;;;;38.13;15.05;;;;;;;;;;5013839;28;20038;-63
2021/09/13 09:03:07;;;;;;;26.05;13.57;;;;;;;;;;5014402;28;20029;-63
2021/09/13 09:05:39;;;;;;;27.30;14.27;;;;;;;;;;5012369;28;20030;-63
2021/09/13 09:08:04;;;;;;;40.13;14.68;;;;;;;;;;5014144;28;20033;-63
2021/09/13 09:10:30;;;;;;;49.67;14.90;;;;;;;;;;5013383;28;20049;-63
2021/09/13 09:13:02;;;;;;;56.15;16.17;;;;;;;;;;5013997;28;20112;-63
2021/09/13 09:15:28;;;;;;;53.15;15.35;;;;;;;;;;5013626;28;20034;-63
2021/09/13 09:17:54;;;;;;;44.42;15.82;;;;;;;;;;5013933;28;20028;-64
2021/09/13 09:20:19;;;;;;;41.78;15.40;;;;;;;;;;5013400;28;20076;-64
2021/09/13 09:22:45;;;;;;;41.78;14.80;;;;;;;;;;5013741;28;20456;-64
2021/09/13 09:25:23;;;;;;;45.70;14.77;;;;;;;;;;5013048;28;20454;-63
2021/09/13 09:27:53;;;;;;;34.58;13.98;;;;;;;;;;5012639;28;20026;-63
2021/09/13 09:30:18;;;;;;;;;;;;;;;;;;5013811;28;20026;-64
2021/09/13 09:32:43;;;;;;;65.28;16.88;;;;;;;;;;5013697;28;19905;-63
2021/09/13 09:35:17;;;;;;;34.45;14.30;;;;;;;;;;5011984;28;20392;-63
2021/09/13 09:37:43;;;;;;;45.67;15.98;;;;;;;;;;5013776;28;20376;-63
2021/09/13 09:40:09;;;;;;;41.22;14.45;;;;;;;;;;5013203;28;20030;-63
2021/09/13 09:42:35;;;;;;;41.53;14.25;;;;;;;;;;5013667;28;20482;-64
2021/09/13 09:45:01;;;;;;;47.22;14.93;;;;;;;;;;5013546;28;20066;-63
2021/09/13 09:47:26;;;;;;;44.92;15.57;;;;;;;;;;5031698;28;20040;-63
2021/09/13 09:49:52;;;;;;;56.20;15.90;;;;;;;;;;5033132;28;20116;-63
2021/09/13 09:52:28;;;;;;;49.38;14.40;;;;;;;;;;5014141;28;20026;-63
2021/09/13 09:55:06;;;;;;;43.17;14.73;;;;;;;;;;5013402;28;20116;-63
2021/09/13 09:57:31;;;;;;;46.92;14.48;;;;;;;;;;5032651;28;20048;-64
2021/09/13 09:59:56;;;;;;;49.30;15.18;;;;;;;;;;5032944;28;20033;-64
2021/09/13 10:02:23;;;;;;;47.35;13.55;;;;;;;;;;5011932;28;20481;-64
2021/09/13 10:04:49;;;;;;;42.92;13.25;;;;;;;;;;5013466;28;20044;-64
2021/09/13 10:07:14;;;;;;;42.50;13.85;;;;;;;;;;5012686;28;20037;-64
2021/09/13 10:09:41;;;;;;;37.58;12.98;;;;;;;;;;5013169;28;20081;-65
2021/09/13 10:12:06;;;;;;;28.95;12.15;;;;;;;;;;5012667;28;20552;-64
2021/09/13 10:14:32;;;;;;;21.92;12.68;;;;;;;;;;5013139;28;20029;-62
2021/09/13 10:16:57;;;;;;;22.85;13.88;;;;;;;;;;5012646;28;20041;-63
2021/09/13 10:19:22;;;;;;;20.13;13.43;;;;;;;;;;5013258;28;20057;-63
2021/09/13 10:21:49;;;;;;;23.27;14.77;;;;;;;;;;5012646;28;20056;-63
2021/09/13 10:24:17;;;;;;;18.67;13.52;;;;;;;;;;5013090;28;20030;-62
2021/09/13 10:26:47;;;;;;;24.00;14.27;;;;;;;;;;5012625;28;20080;-63
2021/09/13 10:29:12;;;;;;;24.00;14.45;;;;;;;;;;5012996;28;20099;-62
2021/09/13 10:31:44;;;;;;;19.50;13.02;;;;;;;;;;5011307;28;20057;-63
2021/09/13 10:34:22;;;;;;;17.63;11.23;;;;;;;;;;5013027;28;20069;-63
2021/09/13 10:37:03;;;;;;;17.55;11.50;;;;;;;;;;5012336;28;20500;-63
2021/09/13 10:39:47;;;;;;;17.60;10.93;;;;;;;;;;5016642;28;20037;-63
2021/09/13 10:42:26;;;;;;;18.55;11.27;;;;;;;;;;5034594;28;20034;-64
2021/09/13 10:45:10;;;;;;;17.00;11.07;;;;;;;;;;5036610;28;20021;-64
2021/09/13 10:47:36;;;;;;;14.30;9.25;;;;;;;;;;5036040;28;20087;-64
2021/09/13 10:50:20;;;;;;;12.23;8.38;;;;;;;;;;5035917;28;20025;-64
2021/09/13 10:52:46;;;;;;;13.02;8.30;;;;;;;;;;5036303;28;20479;-64
2021/09/13 10:55:16;;;;;;;13.02;8.32;;;;;;;;;;5034624;28;20117;-64
2021/09/13 10:57:56;;;;;;;12.57;8.68;;;;;;;;;;5016594;28;20029;-63
2021/09/13 11:00:40;;;;;;;13.75;7.53;;;;;;;;;;5014492;28;20033;-64
2021/09/13 11:03:28;;;;;;;10.98;7.10;;;;;;;;;;5016626;28;20013;-64
2021/09/13 11:06:03;;;;;;;13.50;7.50;;;;;;;;;;5023244;28;20053;-64
2021/09/13 11:08:28;;;;;;;11.88;7.75;;;;;;;;;;5036117;28;20159;-64
2021/09/13 11:10:53;;;;;;;11.85;6.40;;;;;;;;;;5035390;28;20545;-64
2021/09/13 11:13:18;;;;;;;10.68;6.63;;;;;;;;;;5034956;28;20041;-64
2021/09/13 11:15:47;;;;;;;9.68;5.80;;;;;;;;;;5035483;28;20057;-64
2021/09/13 11:18:12;;;;;;;10.93;5.53;;;;;;;;;;5036028;28;20428;-65
2021/09/13 11:20:37;;;;;;;10.45;6.22;;;;;;;;;;5035373;28;20033;-64
2021/09/13 11:23:02;;;;;;;9.18;6.40;;;;;;;;;;5035861;28;20021;-64
2021/09/13 11:25:28;;;;;;;11.38;6.55;;;;;;;;;;5035271;28;20108;-64
2021/09/13 11:28:02;;;;;;;14.50;6.57;;;;;;;;;;5034428;28;20018;-64
2021/09/13 11:30:40;;;;;;;9.27;5.80;;;;;;;;;;5031667;28;20041;-64
2021/09/13 11:33:05;;;;;;;11.82;6.03;;;;;;;;;;5016010;28;20103;-64
2021/09/13 11:35:31;;;;;;;11.00;6.00;;;;;;;;;;5015382;28;20122;-63
2021/09/13 11:37:59;;;;;;;10.65;5.50;;;;;;;;;;5015703;28;20105;-63
2021/09/13 11:40:25;;;;;;;12.77;5.40;;;;;;;;;;5015321;28;20038;-64
2021/09/13 11:42:50;;;;;;;8.48;5.05;;;;;;;;;;5015922;28;20109;-64
2021/09/13 11:45:16;;;;;;;12.00;5.00;;;;;;;;;;5015194;28;20465;-63
2021/09/13 11:47:41;;;;;;;8.85;4.57;;;;;;;;;;5015961;28;20460;-63
2021/09/13 11:50:07;;;;;;;9.75;4.88;;;;;;;;;;5015599;28;20018;-64
2021/09/13 11:52:39;;;;;;;10.55;4.65;;;;;;;;;;5035060;28;20441;-64
2021/09/13 11:55:06;;;;;;;9.27;4.80;;;;;;;;;;5034754;28;20017;-65
2021/09/13 11:57:32;;;;;;;8.07;5.03;;;;;;;;;;5035273;28;20021;-64
2021/09/13 11:59:57;;;;;;;11.13;5.05;;;;;;;;;;5035174;28;20036;-63
2021/09/13 12:02:22;;;;;;;10.75;4.70;;;;;;;;;;5034607;28;20503;-63
2021/09/13 12:04:48;;;;;;;10.57;4.45;;;;;;;;;;5034977;28;20026;-64
2021/09/13 12:07:13;;;;;;;10.70;5.22;;;;;;;;;;5034500;28;20038;-65
2021/09/13 12:09:40;;;;;;;10.25;5.40;;;;;;;;;;5034610;28;20069;-64
2021/09/13 12:12:05;;;;;;;9.45;5.68;;;;;;;;;;5034498;28;20044;-64
2021/09/13 12:14:31;;;;;;;9.98;5.20;;;;;;;;;;5035223;28;20025;-64
2021/09/13 12:17:08;;;;;;;9.80;4.72;;;;;;;;;;5034433;28;20025;-64
2021/09/13 12:19:33;;;;;;;14.63;5.22;;;;;;;;;;5034808;28;20030;-64
2021/09/13 12:21:59;;;;;;;9.43;4.93;;;;;;;;;;5034153;28;20389;-63
2021/09/13 12:24:24;;;;;;;15.27;5.43;;;;;;;;;;5034855;28;20017;-64
2021/09/13 12:26:50;;;;;;;9.48;4.32;;;;;;;;;;5034341;28;20113;-64
2021/09/13 12:29:15;;;;;;;11.32;4.93;;;;;;;;;;5034635;28;20041;-64
2021/09/13 12:31:41;;;;;;;13.77;4.30;;;;;;;;;;5034009;28;20034;-64
2021/09/13 12:34:06;;;;;;;12.57;4.70;;;;;;;;;;5034425;28;20013;-64
2021/09/13 12:36:31;;;;;;;7.28;4.07;;;;;;;;;;5034059;28;20037;-64
2021/09/13 12:38:57;;;;;;;8.75;4.25;;;;;;;;;;5034290;28;20021;-64
2021/09/13 12:41:35;;;;;;;8.60;4.25;;;;;;;;;;5022564;28;20041;-64
2021/09/13 12:44:12;;;;;;;11.50;4.18;;;;;;;;;;5014431;28;20423;-64
2021/09/13 12:46:47;;;;;;;8.32;4.07;;;;;;;;;;5013683;28;20042;-64
2021/09/13 12:49:12;;;;;;;14.82;4.30;;;;;;;;;;5014346;28;20539;-64
2021/09/13 12:51:37;;;;;;;9.82;4.50;;;;;;;;;;5013781;28;20050;-64
2021/09/13 12:54:04;;;;;;;10.98;4.28;;;;;;;;;;5012948;28;20022;-64
2021/09/13 12:56:30;;;;;;;9.82;3.53;;;;;;;;;;5013819;28;20507;-64
2021/09/13 12:59:11;;;;;;;7.93;3.70;;;;;;;;;;5014082;28;20065;-64
2021/09/13 13:01:36;;;;;;;8.82;3.60;;;;;;;;;;5013165;28;20137;-64
2021/09/13 13:04:03;;;;;;;9.55;3.60;;;;;;;;;;5014215;28;20527;-63
2021/09/13 13:06:28;;;;;;;8.68;3.35;;;;;;;;;;5013799;28;20038;-64
2021/09/13 13:08:53;;;;;;;6.38;3.28;;;;;;;;;;5013924;28;20519;-64
2021/09/13 13:11:18;;;;;;;10.20;4.00;;;;;;;;;;5024187;28;20045;-64
2021/09/13 13:13:44;;;;;;;8.23;4.28;;;;;;;;;;5033605;28;20021;-64
2021/09/13 13:16:09;;;;;;;10.85;3.90;;;;;;;;;;5023769;28;20033;-63
2021/09/13 13:18:34;;;;;;;12.82;4.07;;;;;;;;;;5013902;28;20026;-66
2021/09/13 13:20:59;;;;;;;9.57;4.05;;;;;;;;;;5021477;28;20021;-64
2021/09/13 13:23:25;;;;;;;10.05;3.88;;;;;;;;;;5033458;28;20021;-64
2021/09/13 13:25:50;;;;;;;11.25;3.78;;;;;;;;;;5026415;28;20022;-64
2021/09/13 13:28:18;;;;;;;8.45;3.72;;;;;;;;;;5013631;28;20568;-64
2021/09/13 13:30:43;;;;;;;12.30;3.90;;;;;;;;;;5013204;28;20097;-64
2021/09/13 13:33:08;;;;;;;8.13;3.60;;;;;;;;;;5013765;28;20025;-65
2021/09/13 13:35:34;;;;;;;9.85;3.50;;;;;;;;;;5013106;28;20034;-64
2021/09/13 13:37:59;;;;;;;9.27;3.78;;;;;;;;;;5013573;28;20425;-66
2021/09/13 13:40:25;;;;;;;14.45;4.68;;;;;;;;;;5012947;28;20057;-64
2021/09/13 13:42:50;;;;;;;13.93;3.97;;;;;;;;;;5013459;28;20025;-65
2021/09/13 13:45:15;;;;;;;11.98;3.90;;;;;;;;;;5013081;28;20014;-65
2021/09/13 13:47:43;;;;;;;10.60;4.13;;;;;;;;;;5013591;28;20380;-64
2021/09/13 13:50:09;;;;;;;6.80;3.78;;;;;;;;;;5012887;28;20040;-64
2021/09/13 13:52:34;;;;;;;9.57;3.63;;;;;;;;;;5013378;28;20022;-65
2021/09/13 13:54:59;;;;;;;7.38;3.65;;;;;;;;;;5013610;28;20029;-64
2021/09/13 13:57:25;;;;;;;10.35;3.40;;;;;;;;;;5012886;28;20117;-64
2021/09/13 13:59:50;;;;;;;8.07;3.78;;;;;;;;;;5011936;28;20032;-64
2021/09/13 14:02:16;;;;;;;6.70;3.55;;;;;;;;;;5012672;28;20041;-64
2021/09/13 14:04:41;;;;;;;7.20;3.78;;;;;;;;;;5013025;28;20022;-64
2021/09/13 14:07:08;;;;;;;9.82;3.85;;;;;;;;;;5029972;28;20034;-64
2021/09/13 14:09:34;;;;;;;8.93;3.78;;;;;;;;;;5032488;28;20516;-64
2021/09/13 14:11:59;;;;;;;8.93;3.97;;;;;;;;;;5034079;28;20049;-64
2021/09/13 14:14:25;;;;;;;94.30;10.10;;;;;;;;;;5036986;28;20022;-64
2021/09/13 14:16:51;;;;;;;47.90;6.88;;;;;;;;;;5021662;28;20022;-64
2021/09/13 14:19:16;;;;;;;11.90;4.13;;;;;;;;;;5017208;28;20030;-64
2021/09/13 14:21:41;;;;;;;8.25;4.00;;;;;;;;;;5016636;28;20034;-64
2021/09/13 14:24:06;;;;;;;12.63;4.32;;;;;;;;;;5017055;28;20029;-65
2021/09/13 14:26:32;;;;;;;32.40;5.40;;;;;;;;;;5028877;28;20060;-64
2021/09/13 14:28:57;;;;;;;574.97;44.63;;;;;;;;;;5018859;28;20112;-64